Time;durP1;ratioP1;P1;durP2;ratioP2;P2;SDS_P1;SDS_P2;PMS_P1;PMS_P2;Temp;Humidity;BMP_temperature;BMP_pressure;BME280_temperature;BME280_humidity;BME280_pressure;Samples;Min_cycle;Max_cycle;Signal;HPM_P1;HPM_P2
2023/12/03 00:00:14;;;;;;;18.15;3.55;;;;;;;15.45;100.00;99681.38;4933344;29;20040;-63
2023/12/03 00:02:41;;;;;;;18.45;4.57;;;;;;;15.50;100.00;99683.97;4916981;29;20043;-65
2023/12/03 00:05:27;;;;;;;19.70;4.55;;;;;;;15.51;100.00;99676.19;4933173;29;20042;-64
2023/12/03 00:08:33;;;;;;;14.25;4.53;;;;;;;15.58;100.00;99671.88;4908333;29;20511;-65
2023/12/03 00:11:01;;;;;;;19.50;4.63;;;;;;;15.54;100.00;99672.72;4879305;29;20049;-64
2023/12/03 00:13:26;;;;;;;20.98;3.90;;;;;;;15.51;100.00;99671.00;4894690;29;20047;-65
2023/12/03 00:15:52;;;;;;;23.42;5.32;;;;;;;15.56;100.00;99677.94;4895008;29;20447;-64
2023/12/03 00:18:17;;;;;;;21.58;4.05;;;;;;;15.51;100.00;99668.38;4895202;29;20044;-63
2023/12/03 00:20:43;;;;;;;21.25;4.32;;;;;;;15.51;100.00;99664.91;4883486;29;20135;-65
2023/12/03 00:23:09;;;;;;;17.05;4.03;;;;;;;15.57;100.00;99669.28;4947110;29;20106;-65
2023/12/03 00:25:34;;;;;;;18.20;4.20;;;;;;;15.58;100.00;99677.06;4952183;29;20054;-65
2023/12/03 00:28:00;;;;;;;21.45;5.15;;;;;;;15.57;100.00;99675.31;4951622;29;20064;-66
2023/12/03 00:30:25;;;;;;;24.05;4.63;;;;;;;15.56;100.00;99684.00;4952482;29;20114;-65
2023/12/03 00:32:51;;;;;;;27.85;5.07;;;;;;;15.51;100.00;99670.09;4951558;29;20746;-65
2023/12/03 00:35:16;;;;;;;27.23;5.10;;;;;;;15.58;100.00;99681.41;4951965;29;20043;-65
2023/12/03 00:37:42;;;;;;;27.48;5.35;;;;;;;15.57;100.00;99683.13;4951622;29;20138;-65
2023/12/03 00:40:08;;;;;;;30.73;5.45;;;;;;;15.53;100.00;99690.06;4951569;29;20043;-65
2023/12/03 00:42:33;;;;;;;26.38;5.55;;;;;;;15.58;100.00;99684.88;4950915;29;20043;-65
2023/12/03 00:44:58;;;;;;;21.42;3.90;;;;;;;15.59;100.00;99688.34;4958347;28;20061;-65
2023/12/03 00:47:24;;;;;;;23.77;5.03;;;;;;;15.52;100.00;99697.84;4972462;28;20038;-65
2023/12/03 00:49:49;;;;;;;18.50;3.53;;;;;;;15.48;100.00;99696.97;4993679;28;20034;-69
2023/12/03 00:52:15;;;;;;;23.02;4.38;;;;;;;15.48;100.00;99690.91;5012327;28;20036;-63
2023/12/03 00:54:40;;;;;;;28.05;5.15;;;;;;;15.40;100.00;99682.19;5012546;28;20033;-63
2023/12/03 00:57:06;;;;;;;24.65;4.55;;;;;;;15.31;100.00;99672.63;5011791;28;20030;-65
2023/12/03 00:59:51;;;;;;;22.50;4.65;;;;;;;15.51;100.00;99697.00;5012298;28;20476;-64
2023/12/03 01:02:20;;;;;;;24.85;5.22;;;;;;;15.57;100.00;99700.50;4989460;28;20496;-64
2023/12/03 01:04:45;;;;;;;26.53;5.27;;;;;;;15.53;100.00;99707.41;4990287;28;20444;-65
2023/12/03 01:07:11;;;;;;;23.13;4.38;;;;;;;15.54;100.00;99706.56;4989736;28;20273;-64
2023/12/03 01:09:36;;;;;;;20.35;4.90;;;;;;;15.55;100.00;99703.06;4989607;28;20034;-65
2023/12/03 01:12:02;;;;;;;22.80;4.50;;;;;;;15.25;100.00;99644.84;4989625;28;20579;-65
2023/12/03 01:14:27;;;;;;;22.20;4.32;;;;;;;15.52;100.00;99698.72;4989893;28;20050;-65
2023/12/03 01:16:53;;;;;;;27.35;5.20;;;;;;;15.20;100.00;99634.44;4989825;28;20042;-66
2023/12/03 01:19:18;;;;;;;26.40;4.57;;;;;;;15.59;100.00;99723.03;4989974;28;20080;-71
2023/12/03 01:21:44;;;;;;;21.67;3.88;;;;;;;15.54;100.00;99714.34;4989593;28;20077;-70
2023/12/03 01:24:09;;;;;;;26.05;5.78;;;;;;;15.49;100.00;99710.88;4989529;28;20436;-64
2023/12/03 01:26:35;;;;;;;25.73;4.70;;;;;;;15.49;100.00;99703.06;4989393;28;20088;-65
2023/12/03 01:29:00;;;;;;;25.63;4.78;;;;;;;15.43;100.00;99693.50;4989496;28;20110;-65
2023/12/03 01:31:26;;;;;;;20.13;5.65;;;;;;;15.29;100.00;99670.03;4989120;28;20121;-65
2023/12/03 01:33:51;;;;;;;25.98;4.57;;;;;;;15.38;100.00;99690.00;5005799;28;20042;-65
2023/12/03 01:36:17;;;;;;;25.52;5.60;;;;;;;15.30;100.00;99687.38;5011447;28;20485;-64
2023/12/03 01:38:42;;;;;;;20.00;4.25;;;;;;;15.42;100.00;99696.09;5011216;28;20026;-64
2023/12/03 01:41:08;;;;;;;25.17;4.45;;;;;;;15.35;100.00;99690.84;5011435;28;20030;-68
2023/12/03 01:43:54;;;;;;;24.13;6.47;;;;;;;15.42;100.00;99693.50;5011319;28;20078;-66
2023/12/03 01:46:22;;;;;;;32.05;4.93;;;;;;;15.39;100.00;99690.84;5011233;28;20435;-64
2023/12/03 01:48:49;;;;;;;23.38;4.30;;;;;;;15.28;100.00;99672.63;5004616;28;20079;-63
2023/12/03 01:51:14;;;;;;;22.55;4.60;;;;;;;14.94;100.00;99620.44;5009778;28;20108;-65
2023/12/03 01:53:42;;;;;;;26.08;5.15;;;;;;;15.31;100.00;99694.28;5008618;28;20037;-67
2023/12/03 01:56:09;;;;;;;27.15;4.47;;;;;;;15.07;100.00;99653.44;4998716;28;20057;-65
2023/12/03 01:58:34;;;;;;;22.83;4.53;;;;;;;14.58;100.00;99578.63;4988113;28;20042;-66
2023/12/03 02:01:00;;;;;;;28.25;4.85;;;;;;;15.23;100.00;99689.91;5004896;28;20022;-63
2023/12/03 02:03:26;;;;;;;27.73;5.75;;;;;;;14.83;100.00;99620.41;5003228;28;20072;-64
2023/12/03 02:06:10;;;;;;;23.00;4.38;;;;;;;15.31;100.00;99698.63;5010417;28;20063;-64
2023/12/03 02:08:37;;;;;;;26.77;4.95;;;;;;;15.06;100.00;99671.63;5020462;28;20030;-63
2023/12/03 02:11:05;;;;;;;27.25;4.57;;;;;;;15.23;100.00;99714.19;5008855;28;20092;-65
2023/12/03 02:13:36;;;;;;;27.10;4.70;;;;;;;15.19;100.00;99715.91;5009546;28;20030;-70
2023/12/03 02:16:01;;;;;;;23.95;5.13;;;;;;;15.18;100.00;99711.56;5010317;28;20113;-65
2023/12/03 02:18:27;;;;;;;25.95;4.70;;;;;;;14.43;100.00;99586.31;5010300;28;20113;-65
2023/12/03 02:20:55;;;;;;;25.42;5.57;;;;;;;15.15;100.00;99715.88;5010810;28;20026;-65
2023/12/03 02:23:20;;;;;;;30.73;4.53;;;;;;;15.14;100.00;99714.13;5010578;28;20400;-63
2023/12/03 02:25:47;;;;;;;29.02;4.93;;;;;;;15.02;100.00;99708.00;5010228;28;20025;-64
2023/12/03 02:28:13;;;;;;;25.60;5.43;;;;;;;15.10;100.00;99720.16;5010337;28;20037;-68
2023/12/03 02:30:41;;;;;;;28.92;4.68;;;;;;;15.13;100.00;99725.41;5010297;28;20026;-63
2023/12/03 02:33:06;;;;;;;22.70;5.53;;;;;;;15.13;100.00;99715.00;5010238;28;20542;-65
2023/12/03 02:35:32;;;;;;;26.45;5.32;;;;;;;15.13;100.00;99715.00;5010561;28;20026;-65
2023/12/03 02:37:57;;;;;;;27.52;4.70;;;;;;;15.08;100.00;99714.09;5010359;28;20022;-64
2023/12/03 02:40:23;;;;;;;29.13;5.53;;;;;;;15.15;100.00;99708.06;5010191;28;20073;-70
2023/12/03 02:42:48;;;;;;;24.92;5.40;;;;;;;15.11;100.00;99706.31;5010585;28;20026;-71
2023/12/03 02:45:14;;;;;;;25.05;4.80;;;;;;;14.83;100.00;99668.03;5010182;28;20056;-65
2023/12/03 02:47:39;;;;;;;24.05;5.43;;;;;;;15.01;100.00;99707.97;5010047;28;20882;-65
2023/12/03 02:50:05;;;;;;;24.58;4.68;;;;;;;15.06;100.00;99726.22;5010395;28;20053;-68
2023/12/03 02:52:30;;;;;;;27.85;6.10;;;;;;;15.07;100.00;99728.81;5010322;28;20113;-65
2023/12/03 02:54:56;;;;;;;25.85;5.97;;;;;;;14.62;100.00;99667.84;5010379;28;20026;-64
2023/12/03 02:57:21;;;;;;;28.90;5.90;;;;;;;14.57;100.00;99688.59;5009903;28;20507;-68
2023/12/03 02:59:48;;;;;;;27.27;4.82;;;;;;;14.78;100.00;99752.88;5009788;28;20132;-63
2023/12/03 03:02:14;;;;;;;22.80;4.35;;;;;;;14.46;100.00;99732.63;5009763;28;20121;-65
2023/12/03 03:04:39;;;;;;;18.38;4.55;;;;;;;14.28;100.00;99748.03;5010104;28;20038;-64
2023/12/03 03:07:05;;;;;;;26.08;5.57;;;;;;;14.12;100.00;99757.38;5011664;28;20025;-68
2023/12/03 03:09:30;;;;;;;29.83;5.22;;;;;;;13.98;100.00;99728.69;5013869;28;20038;-66
2023/12/03 03:11:57;;;;;;;27.30;5.05;;;;;;;14.00;100.00;99752.94;5013766;28;20491;-65
2023/12/03 03:14:23;;;;;;;20.55;4.25;;;;;;;13.85;100.00;99738.94;5014066;28;20389;-68
2023/12/03 03:16:49;;;;;;;22.63;4.60;;;;;;;13.92;100.00;99739.88;5013313;28;20101;-65
2023/12/03 03:19:15;;;;;;;29.13;5.90;;;;;;;13.58;100.00;99685.88;5014089;28;20110;-70
2023/12/03 03:21:40;;;;;;;28.02;5.13;;;;;;;13.93;100.00;99745.94;5013769;28;20030;-65
2023/12/03 03:24:06;;;;;;;31.80;5.10;;;;;;;13.88;100.00;99753.66;5013718;28;20026;-63
2023/12/03 03:26:32;;;;;;;23.25;4.53;;;;;;;13.34;100.00;99677.75;5013605;28;20467;-65
2023/12/03 03:28:57;;;;;;;20.63;5.13;;;;;;;13.71;100.00;99753.47;5013760;28;20038;-65
2023/12/03 03:31:23;;;;;;;23.90;5.38;;;;;;;13.54;100.00;99767.06;5013030;28;20026;-67
2023/12/03 03:33:49;;;;;;;21.95;5.63;;;;;;;13.46;100.00;99765.22;5029124;28;20065;-64
2023/12/03 03:36:16;;;;;;;22.08;5.97;;;;;;;13.38;100.00;99768.59;5013412;28;20029;-65
2023/12/03 03:38:44;;;;;;;31.90;6.57;;;;;;;13.27;100.00;99775.28;5013743;28;20045;-65
2023/12/03 03:41:10;;;;;;;18.15;5.53;;;;;;;13.21;100.00;99778.69;5013475;28;20036;-63
2023/12/03 03:43:36;;;;;;;18.67;5.85;;;;;;;13.22;100.00;99766.59;5012217;28;20026;-64
2023/12/03 03:46:02;;;;;;;23.70;5.95;;;;;;;13.30;100.00;99771.91;5013048;28;20045;-65
2023/12/03 03:48:27;;;;;;;22.58;5.82;;;;;;;13.31;100.00;99774.50;5013618;28;20057;-65
2023/12/03 03:50:52;;;;;;;20.90;5.13;;;;;;;13.35;100.00;99778.88;5011849;28;20045;-63
2023/12/03 03:53:18;;;;;;;24.63;5.05;;;;;;;13.33;100.00;99770.19;5011077;28;20062;-63
2023/12/03 03:55:44;;;;;;;24.20;5.20;;;;;;;13.27;100.00;99770.09;5012761;28;20718;-65
2023/12/03 03:58:09;;;;;;;20.02;6.10;;;;;;;12.74;100.00;99695.91;5013259;28;20029;-63
2023/12/03 04:00:35;;;;;;;27.58;5.53;;;;;;;13.21;100.00;99783.88;5012852;28;20032;-65
2023/12/03 04:03:00;;;;;;;23.98;5.97;;;;;;;13.13;100.00;99787.19;5013288;28;20053;-68
2023/12/03 04:05:26;;;;;;;21.88;5.05;;;;;;;13.04;100.00;99770.63;5012923;28;20046;-65
2023/12/03 04:07:51;;;;;;;19.25;5.07;;;;;;;12.72;100.00;99719.22;5013377;28;20022;-65
2023/12/03 04:10:17;;;;;;;22.45;4.85;;;;;;;13.02;100.00;99771.47;5013068;28;20030;-65
2023/12/03 04:12:43;;;;;;;21.52;5.50;;;;;;;13.15;100.00;99790.69;5013006;28;20397;-65
2023/12/03 04:15:09;;;;;;;16.10;5.90;;;;;;;13.22;100.00;99792.50;5012561;28;20053;-63
2023/12/03 04:17:34;;;;;;;26.02;6.75;;;;;;;13.21;100.00;99804.59;5012898;28;20053;-64
2023/12/03 04:20:00;;;;;;;20.52;5.35;;;;;;;12.82;100.00;99740.91;5011790;28;20152;-65
2023/12/03 04:22:25;;;;;;;23.98;5.40;;;;;;;13.15;100.00;99798.47;5027984;28;20026;-65
2023/12/03 04:24:51;;;;;;;24.58;6.45;;;;;;;13.11;100.00;99790.63;5012330;28;20026;-70
2023/12/03 04:27:16;;;;;;;26.08;5.80;;;;;;;13.15;100.00;99798.47;5013002;28;20456;-66
2023/12/03 04:29:42;;;;;;;22.05;5.55;;;;;;;13.14;100.00;99796.72;5012479;28;20032;-65
2023/12/03 04:32:08;;;;;;;23.02;5.13;;;;;;;13.15;100.00;99811.41;5027561;28;20030;-67
2023/12/03 04:34:33;;;;;;;22.20;5.63;;;;;;;13.04;100.00;99798.28;5001313;28;20069;-65
2023/12/03 04:36:59;;;;;;;13.98;4.55;;;;;;;13.01;100.00;99793.94;5012013;28;20041;-66
2023/12/03 04:39:25;;;;;;;23.67;5.53;;;;;;;13.04;100.00;99819.88;5011317;28;20032;-68
2023/12/03 04:41:50;;;;;;;17.05;4.72;;;;;;;12.93;100.00;99816.22;5011737;28;20081;-66
2023/12/03 04:44:16;;;;;;;22.75;4.60;;;;;;;12.95;100.00;99809.38;5012454;28;20109;-65
2023/12/03 04:46:41;;;;;;;27.20;5.57;;;;;;;13.00;100.00;99823.28;5012497;28;20467;-66
2023/12/03 04:49:07;;;;;;;20.70;5.20;;;;;;;13.03;100.00;99833.66;5012737;28;20068;-67
2023/12/03 04:51:33;;;;;;;21.63;5.43;;;;;;;13.01;100.00;99827.59;5012285;28;20050;-65
2023/12/03 04:53:59;;;;;;;18.23;5.38;;;;;;;13.03;100.00;99832.81;5012480;28;20522;-63
2023/12/03 04:56:24;;;;;;;17.63;5.47;;;;;;;12.93;100.00;99818.81;5012343;28;20116;-65
2023/12/03 04:58:50;;;;;;;18.95;5.43;;;;;;;12.98;100.00;99840.50;5012134;28;20496;-64
2023/12/03 05:01:19;;;;;;;21.17;5.63;;;;;;;12.98;100.00;99831.88;5012488;28;20104;-64
2023/12/03 05:03:45;;;;;;;18.35;5.45;;;;;;;12.90;100.00;99831.75;5012086;28;20038;-64
2023/12/03 05:06:11;;;;;;;16.95;5.35;;;;;;;12.85;100.00;99839.44;4977588;28;20405;-65
2023/12/03 05:08:37;;;;;;;22.50;5.57;;;;;;;12.83;100.00;99842.84;5012104;28;20525;-66
2023/12/03 05:11:04;;;;;;;21.13;6.25;;;;;;;12.75;100.00;99840.97;5012104;28;20038;-65
2023/12/03 05:13:30;;;;;;;23.88;6.68;;;;;;;12.52;100.00;99826.75;5011856;28;20109;-63
2023/12/03 05:15:56;;;;;;;20.90;5.75;;;;;;;12.59;100.00;99841.56;5012133;28;20030;-66
2023/12/03 05:18:21;;;;;;;24.60;6.32;;;;;;;12.64;100.00;99839.91;5012149;28;20026;-63
2023/12/03 05:20:47;;;;;;;29.00;7.50;;;;;;;12.37;100.00;99851.47;4989760;28;20049;-65
2023/12/03 05:23:12;;;;;;;22.92;6.72;;;;;;;12.24;100.00;99868.47;4989887;28;20043;-65
2023/12/03 05:25:38;;;;;;;28.75;8.40;;;;;;;11.86;100.00;99805.56;4957266;28;20053;-65
2023/12/03 05:28:03;;;;;;;31.10;8.07;;;;;;;12.25;100.00;99867.66;4989800;28;20030;-65
2023/12/03 05:30:29;;;;;;;35.88;7.40;;;;;;;12.18;100.00;99857.16;4988791;28;20070;-65
2023/12/03 05:32:55;;;;;;;24.83;7.05;;;;;;;12.24;100.00;99865.91;4968342;28;20485;-65
2023/12/03 05:35:20;;;;;;;27.70;8.18;;;;;;;12.20;100.00;99858.91;4986598;28;20504;-66
2023/12/03 05:37:46;;;;;;;25.20;9.50;;;;;;;12.24;100.00;99859.88;4987008;28;20070;-66
2023/12/03 05:40:11;;;;;;;29.95;10.55;;;;;;;12.22;100.00;99859.81;4988632;28;20054;-65
2023/12/03 05:42:37;;;;;;;38.45;12.57;;;;;;;11.76;100.00;99799.31;4988429;28;20117;-65
2023/12/03 05:45:03;;;;;;;31.70;12.25;;;;;;;12.16;100.00;99870.03;4988563;28;20656;-64
2023/12/03 05:47:30;;;;;;;32.72;11.38;;;;;;;12.24;100.00;99875.38;4940445;28;20054;-65
2023/12/03 05:49:58;;;;;;;26.85;11.63;;;;;;;12.11;100.00;99849.25;4988092;28;21489;-65
2023/12/03 05:52:23;;;;;;;31.98;13.52;;;;;;;12.35;100.00;99889.41;5002709;28;20049;-65
2023/12/03 05:54:49;;;;;;;30.70;12.57;;;;;;;12.42;100.00;99885.22;5010191;28;20084;-66
2023/12/03 05:57:14;;;;;;;30.67;11.93;;;;;;;12.49;100.00;99886.25;5010230;28;20034;-65
2023/12/03 05:59:40;;;;;;;24.27;11.93;;;;;;;12.18;100.00;99828.69;5025616;28;20538;-66
2023/12/03 06:02:05;;;;;;;36.72;14.55;;;;;;;12.09;100.00;99814.72;5010405;28;20044;-70
2023/12/03 06:04:31;;;;;;;34.03;12.50;;;;;;;12.48;100.00;99890.53;4997164;28;20501;-67
2023/12/03 06:06:57;;;;;;;30.38;12.80;;;;;;;12.38;100.00;99865.31;5009986;28;20049;-66
2023/12/03 06:09:22;;;;;;;29.10;11.73;;;;;;;12.55;100.00;99886.38;5010449;28;20494;-65
2023/12/03 06:11:48;;;;;;;28.15;10.82;;;;;;;12.56;100.00;99894.16;5011030;28;20033;-64
2023/12/03 06:14:13;;;;;;;27.42;10.25;;;;;;;12.13;100.00;99820.81;5011357;28;20049;-65
2023/12/03 06:16:39;;;;;;;27.95;9.82;;;;;;;12.61;100.00;99902.00;5011214;28;20080;-65
2023/12/03 06:19:04;;;;;;;23.25;8.93;;;;;;;12.61;100.00;99881.28;5011194;28;20018;-65
2023/12/03 06:21:32;;;;;;;18.60;8.98;;;;;;;12.64;100.00;99911.56;5011251;28;20531;-64
2023/12/03 06:23:57;;;;;;;24.00;8.60;;;;;;;12.74;100.00;99896.22;5007347;28;20093;-70
2023/12/03 06:26:23;;;;;;;25.45;10.02;;;;;;;12.79;100.00;99893.72;5004470;28;20030;-63
2023/12/03 06:28:48;;;;;;;27.10;10.07;;;;;;;12.79;100.00;99891.13;5010486;28;20111;-63
2023/12/03 06:31:14;;;;;;;24.58;10.82;;;;;;;12.85;100.00;99908.50;5010111;28;20064;-65
2023/12/03 06:33:40;;;;;;;26.95;9.27;;;;;;;12.93;100.00;99928.53;5025775;28;20034;-65
2023/12/03 06:36:06;;;;;;;35.15;9.48;;;;;;;12.87;100.00;99912.88;5009132;28;20096;-66
2023/12/03 06:38:31;;;;;;;21.92;7.75;;;;;;;13.00;100.00;99920.88;5009821;28;20025;-68
2023/12/03 06:40:57;;;;;;;27.48;7.97;;;;;;;12.94;100.00;99917.28;5009508;28;20030;-69
2023/12/03 06:43:22;;;;;;;23.40;7.53;;;;;;;12.59;100.00;99865.72;5009539;28;20590;-65
2023/12/03 06:45:48;;;;;;;18.70;8.25;;;;;;;12.50;100.00;99852.59;5009693;28;20033;-67
2023/12/03 06:48:13;;;;;;;23.63;8.55;;;;;;;12.85;100.00;99934.41;5024730;28;20129;-66
2023/12/03 06:50:39;;;;;;;30.85;10.00;;;;;;;12.70;100.00;99922.03;5009632;28;20062;-65
2023/12/03 06:53:05;;;;;;;29.45;11.40;;;;;;;12.72;100.00;99918.63;5009120;28;20083;-68
2023/12/03 06:55:31;;;;;;;38.25;13.00;;;;;;;12.61;100.00;99915.81;5009447;28;20038;-64
2023/12/03 06:57:56;;;;;;;31.60;14.45;;;;;;;12.75;100.00;99925.59;5009667;28;20487;-68
2023/12/03 07:00:25;;;;;;;34.70;14.70;;;;;;;12.87;100.00;99927.53;5009907;28;20042;-65
2023/12/03 07:02:51;;;;;;;34.70;13.80;;;;;;;13.00;100.00;99931.25;4984916;28;20550;-68
2023/12/03 07:05:17;;;;;;;29.58;15.15;;;;;;;13.08;100.00;99932.22;4985470;28;20042;-64
2023/12/03 07:07:43;;;;;;;27.38;14.90;;;;;;;13.19;100.00;99935.03;4970328;28;20049;-65
2023/12/03 07:10:09;;;;;;;31.52;15.55;;;;;;;13.24;100.00;99939.41;4959185;28;20526;-67
2023/12/03 07:12:34;;;;;;;34.08;16.85;;;;;;;13.29;100.00;99923.97;4987717;28;20054;-67
2023/12/03 07:15:00;;;;;;;31.40;16.60;;;;;;;13.40;100.00;99921.59;4988352;28;20416;-65
2023/12/03 07:17:25;;;;;;;31.90;17.90;;;;;;;12.92;100.00;99846.47;4988184;28;20046;-65
2023/12/03 07:19:51;;;;;;;29.60;17.33;;;;;;;12.90;100.00;99832.59;4988146;28;20031;-64
2023/12/03 07:22:16;;;;;;;29.73;15.98;;;;;;;13.47;100.00;99917.38;4988220;28;20042;-65
2023/12/03 07:24:43;;;;;;;41.72;17.38;;;;;;;13.63;100.00;99926.25;4988129;28;20035;-66
2023/12/03 07:27:08;;;;;;;35.20;17.52;;;;;;;13.86;100.00;99930.09;4988112;28;20050;-65
2023/12/03 07:29:34;;;;;;;33.70;17.23;;;;;;;13.93;100.00;99910.28;4988214;28;20114;-66
2023/12/03 07:32:01;;;;;;;30.00;17.77;;;;;;;14.05;100.00;99925.16;4988170;28;20034;-70
2023/12/03 07:34:26;;;;;;;34.15;17.42;;;;;;;14.12;100.00;99933.88;5004695;28;20487;-65
2023/12/03 07:36:53;;;;;;;44.45;18.10;;;;;;;14.18;100.00;99940.06;5024256;28;20038;-66
2023/12/03 07:39:19;;;;;;;43.67;18.48;;;;;;;14.12;100.00;99916.63;5010098;28;20062;-70
2023/12/03 07:41:52;;;;;;;33.35;18.45;;;;;;;14.24;100.00;99923.69;5010070;28;20033;-64
2023/12/03 07:44:17;;;;;;;37.25;16.67;;;;;;;14.40;100.00;99938.63;5010204;28;20167;-66
2023/12/03 07:46:43;;;;;;;30.45;16.15;;;;;;;14.41;100.00;99931.69;5010054;28;20112;-72
2023/12/03 07:49:09;;;;;;;36.60;16.08;;;;;;;14.14;100.00;99872.50;5009914;28;20037;-69
2023/12/03 07:51:34;;;;;;;29.58;15.95;;;;;;;14.73;100.00;99949.44;5010253;28;20053;-64
2023/12/03 07:54:00;;;;;;;30.33;14.40;;;;;;;14.84;100.00;99937.44;5010984;28;20056;-65
2023/12/03 07:56:36;;;;;;;33.45;14.70;;;;;;;14.93;100.00;99941.84;5013568;28;20053;-66
2023/12/03 07:59:02;;;;;;;41.97;17.85;;;;;;;15.06;100.00;99947.19;5013372;28;20369;-66
2023/12/03 08:01:27;;;;;;;40.83;16.05;;;;;;;15.22;100.00;99943.88;5013374;28;20030;-66
2023/12/03 08:03:53;;;;;;;35.35;15.55;;;;;;;15.37;100.00;99949.19;5013422;28;20057;-66
2023/12/03 08:06:19;;;;;;;42.35;14.43;;;;;;;15.55;100.00;99950.22;5013130;28;20026;-66
2023/12/03 08:08:44;;;;;;;31.50;14.82;;;;;;;15.65;100.00;99956.38;5013509;28;20393;-66
2023/12/03 08:11:10;;;;;;;35.05;13.65;;;;;;;15.72;100.00;99960.78;5013114;28;20034;-64
2023/12/03 08:13:36;;;;;;;30.77;11.82;;;;;;;15.43;100.00;99895.53;5013089;28;20041;-66
2023/12/03 08:16:04;;;;;;;30.88;11.85;;;;;;;15.91;100.00;99963.53;5013013;28;20034;-72
2023/12/03 08:18:31;;;;;;;34.27;11.90;;;;;;;15.51;100.00;99893.81;5013080;28;20030;-66
2023/12/03 08:20:57;;;;;;;31.55;12.27;;;;;;;15.89;100.00;99955.72;5012747;28;20259;-63
2023/12/03 08:23:22;;;;;;;30.40;9.40;;;;;;;16.00;100.00;99950.59;5013188;28;20109;-66
2023/12/03 08:25:48;;;;;;;22.23;8.45;;;;;;;16.09;100.00;99932.41;5013046;28;20109;-65
2023/12/03 08:28:14;;;;;;;30.52;9.63;;;;;;;16.34;100.00;99942.97;5012934;28;20029;-65
2023/12/03 08:30:39;;;;;;;34.40;8.45;;;;;;;16.45;100.00;99950.84;5012928;28;20552;-72
2023/12/03 08:33:05;;;;;;;25.83;8.52;;;;;;;16.57;100.00;99943.06;5012652;28;20046;-69
2023/12/03 08:35:33;;;;;;;25.30;7.20;;;;;;;16.76;100.00;99940.50;5012475;28;20123;-66
2023/12/03 08:37:59;;;;;;;28.48;6.95;;;;;;;16.79;100.00;99923.16;5012777;28;20018;-65
2023/12/03 08:40:25;;;;;;;23.05;6.45;;;;;;;17.02;100.00;99938.00;5012929;28;20037;-64
2023/12/03 08:42:50;;;;;;;29.45;7.10;;;;;;;17.01;100.00;99938.00;5012704;28;20504;-65
2023/12/03 08:45:16;;;;;;;23.02;6.47;;;;;;;16.76;100.00;99899.69;5012581;28;20096;-65
2023/12/03 08:47:42;;;;;;;31.55;8.10;;;;;;;17.06;100.00;99944.97;5012578;28;20108;-66
2023/12/03 08:50:07;;;;;;;21.75;6.78;;;;;;;17.00;100.00;99918.91;5012375;28;20070;-68
2023/12/03 08:52:33;;;;;;;24.50;8.15;;;;;;;17.20;100.00;99947.59;5012326;28;20041;-65
2023/12/03 08:55:00;;;;;;;30.80;7.72;;;;;;;16.92;100.00;99865.84;5012566;28;20109;-66
2023/12/03 08:57:25;;;;;;;26.77;6.72;;;;;;;17.21;100.00;99898.91;5012223;28;20439;-66
2023/12/03 08:59:53;;;;;;;30.75;8.00;;;;;;;17.49;100.00;99946.75;5012335;28;20042;-71
2023/12/03 09:02:19;;;;;;;26.55;8.23;;;;;;;17.49;100.00;99933.69;5012204;28;20029;-65
2023/12/03 09:04:46;;;;;;;27.13;7.60;;;;;;;17.56;100.00;99927.63;5011757;28;20034;-66
2023/12/03 09:07:12;;;;;;;23.30;7.40;;;;;;;17.75;100.00;99944.13;5012390;28;20030;-66
2023/12/03 09:09:39;;;;;;;32.60;7.93;;;;;;;17.13;100.00;99826.75;5012143;28;20040;-66
2023/12/03 09:12:05;;;;;;;26.98;6.95;;;;;;;17.54;100.00;99865.84;5012033;28;20062;-70
2023/12/03 09:14:31;;;;;;;23.30;6.68;;;;;;;18.07;100.00;99937.16;5011890;28;20401;-67
2023/12/03 09:16:58;;;;;;;25.15;7.50;;;;;;;18.08;100.00;99941.50;5011840;28;20050;-67
2023/12/03 09:19:24;;;;;;;25.33;7.50;;;;;;;18.07;100.00;99924.09;5027255;28;20026;-66
2023/12/03 09:21:49;;;;;;;31.40;6.88;;;;;;;18.22;100.00;99934.50;5012046;28;20034;-66
2023/12/03 09:24:16;;;;;;;31.10;7.88;;;;;;;18.20;100.00;99920.56;5011836;28;20083;-65
2023/12/03 11:33:13;;;;;;;17.48;4.68;;;;;;;17.37;100.00;99973.72;4985334;28;20061;-66
2023/12/03 11:35:42;;;;;;;10.20;3.72;;;;;;;17.41;100.00;99998.09;4993284;28;20073;-65
2023/12/03 11:38:19;;;;;;;11.98;4.22;;;;;;;17.34;100.00;99999.78;4994558;28;20026;-71
2023/12/03 11:40:45;;;;;;;12.05;3.75;;;;;;;17.27;100.00;100006.75;4994690;28;20074;-63
2023/12/03 11:43:26;;;;;;;10.27;4.20;;;;;;;17.25;100.00;100000.66;5004783;28;20801;-65
2023/12/03 11:45:52;;;;;;;11.77;3.53;;;;;;;17.22;100.00;99994.56;5013386;28;20030;-65
2023/12/03 11:48:19;;;;;;;16.05;4.78;;;;;;;17.15;100.00;100001.50;5013594;28;20029;-70
2023/12/03 11:50:46;;;;;;;13.57;3.60;;;;;;;17.15;100.00;100011.94;5013535;28;20377;-66
2023/12/03 11:53:15;;;;;;;15.27;4.28;;;;;;;17.05;100.00;100002.38;5013016;28;20041;-65
2023/12/03 11:55:47;;;;;;;16.83;4.27;;;;;;;17.01;100.00;99998.88;5012990;28;20038;-66
2023/12/03 11:58:13;;;;;;;13.90;4.28;;;;;;;16.91;100.00;100007.47;5028744;28;20030;-68
2023/12/03 12:00:40;;;;;;;19.00;4.03;;;;;;;16.82;100.00;99995.28;4994660;28;20037;-65
2023/12/03 12:03:08;;;;;;;15.07;3.70;;;;;;;16.73;100.00;99997.88;5013428;28;20037;-65
2023/12/03 12:05:42;;;;;;;12.68;4.32;;;;;;;16.61;100.00;99999.56;5012754;28;20392;-65
2023/12/03 12:08:08;;;;;;;12.73;4.38;;;;;;;16.57;100.00;99989.97;5012873;28;20022;-64
2023/12/03 12:10:34;;;;;;;10.73;3.85;;;;;;;16.03;100.00;99923.72;5012947;28;20458;-65
2023/12/03 12:13:03;;;;;;;7.88;3.60;;;;;;;15.94;100.00;99947.97;5013076;28;20040;-65
2023/12/03 12:15:30;;;;;;;7.40;3.33;;;;;;;16.23;100.00;100018.44;5012864;28;20030;-66
2023/12/03 12:17:55;;;;;;;12.52;3.80;;;;;;;16.16;100.00;100019.25;5013013;28;20030;-65
2023/12/03 12:20:30;;;;;;;13.27;4.32;;;;;;;16.12;100.00;100022.72;5012815;28;20025;-65
2023/12/03 12:22:56;;;;;;;12.40;4.07;;;;;;;16.00;100.00;100016.56;5012837;28;20022;-65
2023/12/03 12:25:25;;;;;;;8.20;3.13;;;;;;;15.85;100.00;100021.66;5012804;28;20554;-66
2023/12/03 12:27:52;;;;;;;16.45;3.67;;;;;;;15.85;100.00;100034.66;5013139;28;20037;-65
2023/12/03 12:30:24;;;;;;;7.32;3.60;;;;;;;15.87;100.00;100040.75;5012601;28;20037;-64
2023/12/03 12:32:54;;;;;;;9.98;3.70;;;;;;;15.34;100.00;99975.19;5012724;28;20049;-67
2023/12/03 12:35:22;;;;;;;7.13;3.50;;;;;;;15.72;100.00;100043.19;4994305;28;20519;-66
2023/12/03 12:38:01;;;;;;;12.55;4.55;;;;;;;15.55;100.00;100028.25;5012628;28;20038;-64
2023/12/03 12:40:30;;;;;;;11.10;3.90;;;;;;;15.47;100.00;100037.75;5011810;28;20025;-68
2023/12/03 12:43:07;;;;;;;8.30;3.45;;;;;;;15.41;100.00;100033.34;5005157;28;20037;-66
2023/12/03 12:45:33;;;;;;;9.00;4.22;;;;;;;15.50;100.00;100051.66;5011629;28;20033;-66
2023/12/03 12:47:59;;;;;;;8.85;3.83;;;;;;;15.16;100.00;99995.81;5013059;28;20030;-66
2023/12/03 12:50:41;;;;;;;8.02;4.00;;;;;;;15.03;100.00;100019.06;5012712;28;20033;-66
2023/12/03 12:53:08;;;;;;;10.30;3.83;;;;;;;15.18;100.00;100059.13;5012172;28;20033;-69
2023/12/03 12:55:35;;;;;;;8.77;3.85;;;;;;;15.09;100.00;100051.19;5012011;28;20064;-70
2023/12/03 12:58:05;;;;;;;14.95;4.93;;;;;;;14.94;100.00;100031.97;5011425;28;20029;-67
2023/12/03 13:00:32;;;;;;;12.18;4.97;;;;;;;14.85;100.00;100032.75;5012125;28;20024;-66
2023/12/03 13:02:57;;;;;;;9.68;3.50;;;;;;;14.84;100.00;100050.88;5011246;28;20029;-68
2023/12/03 13:05:24;;;;;;;8.27;3.60;;;;;;;14.84;100.00;100063.88;5011242;28;20037;-66
2023/12/03 13:07:51;;;;;;;10.73;4.30;;;;;;;14.47;100.00;100014.03;5011761;28;20041;-66
2023/12/03 13:10:16;;;;;;;7.57;3.22;;;;;;;14.79;100.00;100079.44;5002458;28;20420;-67
2023/12/03 13:12:43;;;;;;;7.43;3.75;;;;;;;14.57;100.00;100070.44;5010946;28;20038;-67
2023/12/03 13:15:11;;;;;;;12.00;5.90;;;;;;;14.19;100.00;100011.00;5026870;28;20088;-66
2023/12/03 13:17:59;;;;;;;10.68;5.20;;;;;;;14.14;100.00;100015.28;5011538;28;20109;-69